sensor_id;sensor_type;location;lat;lon;timestamp;pressure;altitude;pressure_sealevel;temperature;humidity
64753;BME280;61095;52.454;16.948;2023-04-29T06:03:11;100069.25;;;12.59;58.21
64753;BME280;61095;52.454;16.948;2023-04-29T06:08:11;100057.72;;;12.60;58.02
64753;BME280;61095;52.454;16.948;2023-04-29T06:13:12;100061.50;;;12.54;58.08
64753;BME280;61095;52.454;16.948;2023-04-29T06:18:13;100072.72;;;12.98;56.89
64753;BME280;61095;52.454;16.948;2023-04-29T06:23:14;100068.22;;;13.00;57.15
64753;BME280;61095;52.454;16.948;2023-04-29T06:28:14;100076.22;;;13.18;56.40
64753;BME280;61095;52.454;16.948;2023-04-29T06:33:16;100089.69;;;13.13;56.62
64753;BME280;61095;52.454;16.948;2023-04-29T06:38:17;100073.25;;;13.24;56.17
64753;BME280;61095;52.454;16.948;2023-04-29T06:43:17;100081.03;;;13.46;55.59
64753;BME280;61095;52.454;16.948;2023-04-29T06:48:19;100081.59;;;13.52;55.63
64753;BME280;61095;52.454;16.948;2023-04-29T06:53:20;100076.63;;;13.63;55.43
64753;BME280;61095;52.454;16.948;2023-04-29T06:58:21;100060.69;;;13.81;55.40
64753;BME280;61095;52.454;16.948;2023-04-29T07:03:23;100059.94;;;13.79;55.78
64753;BME280;61095;52.454;16.948;2023-04-29T07:08:23;100061.25;;;13.70;55.82
64753;BME280;61095;52.454;16.948;2023-04-29T07:13:24;100055.41;;;13.81;55.81
64753;BME280;61095;52.454;16.948;2023-04-29T07:18:26;100068.16;;;14.09;55.83
64753;BME280;61095;52.454;16.948;2023-04-29T07:23:26;100062.56;;;14.30;55.36
64753;BME280;61095;52.454;16.948;2023-04-29T07:28:27;100066.13;;;14.47;54.40
64753;BME280;61095;52.454;16.948;2023-04-29T07:33:29;100062.56;;;14.30;54.78
64753;BME280;61095;52.454;16.948;2023-04-29T07:38:29;100072.16;;;14.50;54.36
64753;BME280;61095;52.454;16.948;2023-04-29T07:43:30;100064.03;;;14.69;53.85
64753;BME280;61095;52.454;16.948;2023-04-29T07:48:35;100063.25;;;14.67;53.93
64753;BME280;61095;52.454;16.948;2023-04-29T07:53:36;100061.78;;;14.61;54.10
64753;BME280;61095;52.454;16.948;2023-04-29T07:58:36;100049.81;;;14.37;54.44
64753;BME280;61095;52.454;16.948;2023-04-29T08:03:38;100058.13;;;14.31;54.45
64753;BME280;61095;52.454;16.948;2023-04-29T08:08:38;100045.47;;;14.36;54.65
64753;BME280;61095;52.454;16.948;2023-04-29T08:13:39;100056.56;;;14.27;55.20
64753;BME280;61095;52.454;16.948;2023-04-29T08:18:41;100062.75;;;14.60;54.34
64753;BME280;61095;52.454;16.948;2023-04-29T08:23:41;100054.94;;;14.73;54.18
64753;BME280;61095;52.454;16.948;2023-04-29T08:28:42;100060.16;;;14.59;54.21
64753;BME280;61095;52.454;16.948;2023-04-29T08:33:44;100055.38;;;14.81;53.56
64753;BME280;61095;52.454;16.948;2023-04-29T08:38:44;100064.09;;;15.01;53.04
64753;BME280;61095;52.454;16.948;2023-04-29T08:43:45;100066.13;;;15.27;53.14
64753;BME280;61095;52.454;16.948;2023-04-29T08:48:46;100064.84;;;15.50;52.39
64753;BME280;61095;52.454;16.948;2023-04-29T08:53:47;100065.28;;;15.72;52.01
64753;BME280;61095;52.454;16.948;2023-04-29T08:58:49;100070.16;;;15.80;52.17
64753;BME280;61095;52.454;16.948;2023-04-29T09:03:54;100065.44;;;15.85;52.68
64753;BME280;61095;52.454;16.948;2023-04-29T09:08:57;100073.38;;;16.31;55.44
64753;BME280;61095;52.454;16.948;2023-04-29T09:13:59;100073.56;;;16.84;52.71
64753;BME280;61095;52.454;16.948;2023-04-29T09:19:01;100063.94;;;16.82;51.97
64753;BME280;61095;52.454;16.948;2023-04-29T09:24:02;100072.75;;;17.11;51.17
64753;BME280;61095;52.454;16.948;2023-04-29T09:29:06;100065.34;;;17.02;50.18
64753;BME280;61095;52.454;16.948;2023-04-29T09:34:09;100060.47;;;17.08;50.64
64753;BME280;61095;52.454;16.948;2023-04-29T09:39:11;100071.59;;;17.29;50.29
64753;BME280;61095;52.454;16.948;2023-04-29T09:44:11;100073.53;;;17.67;49.38
64753;BME280;61095;52.454;16.948;2023-04-29T09:49:22;100071.13;;;17.49;49.55
64753;BME280;61095;52.454;16.948;2023-04-29T09:54:24;100070.09;;;17.65;49.29
64753;BME280;61095;52.454;16.948;2023-04-29T09:59:25;100069.84;;;17.82;48.99
64753;BME280;61095;52.454;16.948;2023-04-29T10:04:27;100071.94;;;18.04;48.80
64753;BME280;61095;52.454;16.948;2023-04-29T10:09:29;100069.09;;;18.20;48.67
64753;BME280;61095;52.454;16.948;2023-04-29T10:14:34;100063.63;;;18.34;47.95
64753;BME280;61095;52.454;16.948;2023-04-29T10:19:46;100060.13;;;18.33;47.28
64753;BME280;61095;52.454;16.948;2023-04-29T10:24:52;100061.19;;;18.31;47.33
64753;BME280;61095;52.454;16.948;2023-04-29T10:29:55;100055.94;;;18.17;47.69
64753;BME280;61095;52.454;16.948;2023-04-29T10:34:59;100052.22;;;18.19;48.06
64753;BME280;61095;52.454;16.948;2023-04-29T10:40:06;100054.22;;;18.41;47.56
64753;BME280;61095;52.454;16.948;2023-04-29T10:45:21;100053.13;;;18.56;46.93
64753;BME280;61095;52.454;16.948;2023-04-29T10:50:23;100052.91;;;18.59;47.15
64753;BME280;61095;52.454;16.948;2023-04-29T10:55:23;100052.09;;;18.46;47.43
64753;BME280;61095;52.454;16.948;2023-04-29T11:00:26;100051.56;;;18.66;47.32
64753;BME280;61095;52.454;16.948;2023-04-29T11:05:32;100051.66;;;18.78;47.29
64753;BME280;61095;52.454;16.948;2023-04-29T11:10:35;100051.50;;;18.92;47.70
64753;BME280;61095;52.454;16.948;2023-04-29T11:15:35;100056.38;;;19.11;47.56
64753;BME280;61095;52.454;16.948;2023-04-29T11:26:10;100055.59;;;19.21;47.13
64753;BME280;61095;52.454;16.948;2023-04-29T11:31:11;100059.59;;;19.16;46.97
64753;BME280;61095;52.454;16.948;2023-04-29T11:36:11;100063.25;;;19.02;47.77
64753;BME280;61095;52.454;16.948;2023-04-29T11:41:13;100064.84;;;19.04;47.99
64753;BME280;61095;52.454;16.948;2023-04-29T11:46:14;100065.06;;;19.14;48.29
64753;BME280;61095;52.454;16.948;2023-04-29T11:51:15;100067.28;;;19.20;48.62
64753;BME280;61095;52.454;16.948;2023-04-29T11:56:20;100054.47;;;19.13;48.38
64753;BME280;61095;52.454;16.948;2023-04-29T12:01:21;100060.84;;;19.23;48.99
64753;BME280;61095;52.454;16.948;2023-04-29T12:06:26;100066.38;;;19.32;49.31
64753;BME280;61095;52.454;16.948;2023-04-29T12:11:28;100062.84;;;19.32;49.62
64753;BME280;61095;52.454;16.948;2023-04-29T12:16:28;100057.94;;;19.26;49.81
64753;BME280;61095;52.454;16.948;2023-04-29T12:21:29;100053.72;;;19.34;49.74
64753;BME280;61095;52.454;16.948;2023-04-29T12:26:31;100053.03;;;19.44;49.61
64753;BME280;61095;52.454;16.948;2023-04-29T12:31:32;100051.50;;;19.52;49.55
64753;BME280;61095;52.454;16.948;2023-04-29T12:36:33;100053.31;;;19.52;49.33
64753;BME280;61095;52.454;16.948;2023-04-29T12:41:39;100052.22;;;19.67;49.61
64753;BME280;61095;52.454;16.948;2023-04-29T12:46:40;100040.31;;;19.71;49.16
64753;BME280;61095;52.454;16.948;2023-04-29T12:51:40;100044.47;;;19.75;49.48
64753;BME280;61095;52.454;16.948;2023-04-29T12:56:42;100042.84;;;19.61;49.42
64753;BME280;61095;52.454;16.948;2023-04-29T13:01:42;100035.78;;;19.60;49.94
64753;BME280;61095;52.454;16.948;2023-04-29T13:06:43;100044.53;;;19.62;49.79
64753;BME280;61095;52.454;16.948;2023-04-29T13:11:44;100034.06;;;19.59;50.13
64753;BME280;61095;52.454;16.948;2023-04-29T13:16:45;100043.91;;;19.59;50.74
64753;BME280;61095;52.454;16.948;2023-04-29T13:21:45;100049.72;;;19.53;52.24
64753;BME280;61095;52.454;16.948;2023-04-29T13:26:47;100045.00;;;19.44;52.68
64753;BME280;61095;52.454;16.948;2023-04-29T13:31:47;100046.50;;;19.48;53.27
64753;BME280;61095;52.454;16.948;2023-04-29T13:36:47;100030.84;;;19.54;53.33
64753;BME280;61095;52.454;16.948;2023-04-29T13:41:49;100040.91;;;19.51;53.40
64753;BME280;61095;52.454;16.948;2023-04-29T13:46:49;100040.28;;;19.47;53.29
64753;BME280;61095;52.454;16.948;2023-04-29T13:51:50;100044.56;;;19.50;53.03
64753;BME280;61095;52.454;16.948;2023-04-29T13:56:51;100038.13;;;19.52;52.43
64753;BME280;61095;52.454;16.948;2023-04-29T14:01:52;100038.78;;;19.56;52.17
64753;BME280;61095;52.454;16.948;2023-04-29T14:06:53;100053.56;;;19.49;52.11
64753;BME280;61095;52.454;16.948;2023-04-29T14:11:54;100055.59;;;19.45;51.41
64753;BME280;61095;52.454;16.948;2023-04-29T14:16:55;100062.91;;;19.19;52.12
64753;BME280;61095;52.454;16.948;2023-04-29T14:21:55;100067.22;;;18.96;52.61
64753;BME280;61095;52.454;16.948;2023-04-29T14:26:57;100073.78;;;18.80;52.97
64753;BME280;61095;52.454;16.948;2023-04-29T14:31:57;100082.47;;;18.70;53.84
64753;BME280;61095;52.454;16.948;2023-04-29T14:36:58;100082.09;;;18.62;55.18
64753;BME280;61095;52.454;16.948;2023-04-29T14:42:00;100082.53;;;18.56;56.58
64753;BME280;61095;52.454;16.948;2023-04-29T14:47:01;100085.22;;;18.43;57.96
64753;BME280;61095;52.454;16.948;2023-04-29T14:52:01;100091.09;;;18.36;59.04
64753;BME280;61095;52.454;16.948;2023-04-29T14:57:03;100091.75;;;18.27;59.91
64753;BME280;61095;52.454;16.948;2023-04-29T15:02:03;100086.19;;;18.17;60.39
64753;BME280;61095;52.454;16.948;2023-04-29T15:07:04;100095.75;;;18.07;60.63
64753;BME280;61095;52.454;16.948;2023-04-29T15:12:05;100104.19;;;18.01;60.71
64753;BME280;61095;52.454;16.948;2023-04-29T15:17:06;100103.44;;;17.99;61.13
64753;BME280;61095;52.454;16.948;2023-04-29T15:22:06;100106.97;;;17.99;61.55
64753;BME280;61095;52.454;16.948;2023-04-29T15:27:08;100107.59;;;18.03;61.18
64753;BME280;61095;52.454;16.948;2023-04-29T15:32:08;100107.81;;;18.00;61.54
64753;BME280;61095;52.454;16.948;2023-04-29T15:37:09;100116.34;;;17.92;61.35
64753;BME280;61095;52.454;16.948;2023-04-29T15:42:10;100122.09;;;17.86;61.94
64753;BME280;61095;52.454;16.948;2023-04-29T15:47:11;100132.00;;;17.84;62.19
64753;BME280;61095;52.454;16.948;2023-04-29T15:52:12;100142.97;;;17.79;61.94
64753;BME280;61095;52.454;16.948;2023-04-29T15:57:14;100140.59;;;17.75;61.91
64753;BME280;61095;52.454;16.948;2023-04-29T16:02:14;100136.81;;;17.65;61.83
64753;BME280;61095;52.454;16.948;2023-04-29T16:07:16;100141.50;;;17.61;62.31
64753;BME280;61095;52.454;16.948;2023-04-29T16:12:17;100149.25;;;17.52;62.36
64753;BME280;61095;52.454;16.948;2023-04-29T16:17:18;100148.13;;;17.41;62.07
64753;BME280;61095;52.454;16.948;2023-04-29T16:22:19;100161.41;;;17.29;62.53
64753;BME280;61095;52.454;16.948;2023-04-29T16:27:21;100170.91;;;17.18;62.21
64753;BME280;61095;52.454;16.948;2023-04-29T16:32:21;100173.41;;;17.07;62.02
64753;BME280;61095;52.454;16.948;2023-04-29T16:37:22;100180.63;;;16.91;62.28
64753;BME280;61095;52.454;16.948;2023-04-29T16:42:23;100193.00;;;16.78;62.05
64753;BME280;61095;52.454;16.948;2023-04-29T16:47:24;100196.94;;;16.71;62.42
64753;BME280;61095;52.454;16.948;2023-04-29T16:52:24;100203.59;;;16.64;61.96
64753;BME280;61095;52.454;16.948;2023-04-29T16:57:26;100218.53;;;16.52;62.22
64753;BME280;61095;52.454;16.948;2023-04-29T17:02:27;100227.06;;;16.43;62.41
64753;BME280;61095;52.454;16.948;2023-04-29T17:07:29;100232.75;;;16.37;62.18
64753;BME280;61095;52.454;16.948;2023-04-29T17:12:31;100237.81;;;16.26;62.21
64753;BME280;61095;52.454;16.948;2023-04-29T17:17:31;100237.50;;;16.16;62.36
64753;BME280;61095;52.454;16.948;2023-04-29T17:22:32;100247.66;;;16.09;62.67
64753;BME280;61095;52.454;16.948;2023-04-29T17:27:33;100248.88;;;16.04;62.68
64753;BME280;61095;52.454;16.948;2023-04-29T17:32:34;100260.53;;;16.01;62.74
64753;BME280;61095;52.454;16.948;2023-04-29T17:37:35;100275.03;;;15.96;62.79
64753;BME280;61095;52.454;16.948;2023-04-29T17:42:52;100277.09;;;15.90;62.80
64753;BME280;61095;52.454;16.948;2023-04-29T17:47:52;100280.00;;;15.86;62.62
64753;BME280;61095;52.454;16.948;2023-04-29T17:52:53;100283.78;;;15.82;62.62
64753;BME280;61095;52.454;16.948;2023-04-29T17:57:55;100287.44;;;15.79;63.00
64753;BME280;61095;52.454;16.948;2023-04-29T18:02:55;100291.47;;;15.71;62.91
64753;BME280;61095;52.454;16.948;2023-04-29T18:07:55;100303.41;;;15.64;63.26
64753;BME280;61095;52.454;16.948;2023-04-29T18:12:57;100315.16;;;15.59;63.62
64753;BME280;61095;52.454;16.948;2023-04-29T18:17:57;100315.66;;;15.50;63.30
64753;BME280;61095;52.454;16.948;2023-04-29T18:22:58;100322.06;;;15.46;63.68
64753;BME280;61095;52.454;16.948;2023-04-29T18:28:00;100333.91;;;15.41;63.64
64753;BME280;61095;52.454;16.948;2023-04-29T18:33:04;100336.81;;;15.36;64.06
64753;BME280;61095;52.454;16.948;2023-04-29T18:38:04;100347.75;;;15.30;63.59
64753;BME280;61095;52.454;16.948;2023-04-29T18:43:06;100357.59;;;15.28;63.53
64753;BME280;61095;52.454;16.948;2023-04-29T18:48:07;100366.59;;;15.25;63.65
64753;BME280;61095;52.454;16.948;2023-04-29T18:53:08;100378.63;;;15.15;63.79
64753;BME280;61095;52.454;16.948;2023-04-29T18:58:10;100379.56;;;15.14;63.71
64753;BME280;61095;52.454;16.948;2023-04-29T19:03:10;100383.09;;;15.15;63.45
64753;BME280;61095;52.454;16.948;2023-04-29T19:08:11;100401.19;;;14.89;63.35
64753;BME280;61095;52.454;16.948;2023-04-29T19:13:12;100413.41;;;14.93;63.30
64753;BME280;61095;52.454;16.948;2023-04-29T19:18:13;100422.09;;;14.78;63.32
64753;BME280;61095;52.454;16.948;2023-04-29T19:23:13;100426.94;;;14.70;63.37
64753;BME280;61095;52.454;16.948;2023-04-29T19:28:15;100428.66;;;14.71;63.15
64753;BME280;61095;52.454;16.948;2023-04-29T19:33:15;100441.38;;;14.64;62.97
64753;BME280;61095;52.454;16.948;2023-04-29T19:38:16;100441.25;;;14.49;62.79
64753;BME280;61095;52.454;16.948;2023-04-29T19:43:18;100449.00;;;14.53;62.28
64753;BME280;61095;52.454;16.948;2023-04-29T19:48:18;100461.69;;;14.47;61.97
64753;BME280;61095;52.454;16.948;2023-04-29T19:53:18;100470.53;;;14.47;61.82
64753;BME280;61095;52.454;16.948;2023-04-29T19:58:20;100474.97;;;14.47;62.01
64753;BME280;61095;52.454;16.948;2023-04-29T20:03:20;100474.13;;;14.46;61.82
64753;BME280;61095;52.454;16.948;2023-04-29T20:08:21;100493.84;;;14.41;61.36
64753;BME280;61095;52.454;16.948;2023-04-29T20:13:23;100487.78;;;14.37;60.63
64753;BME280;61095;52.454;16.948;2023-04-29T20:18:23;100503.94;;;14.32;59.42
64753;BME280;61095;52.454;16.948;2023-04-29T20:23:23;100507.88;;;14.24;58.77
64753;BME280;61095;52.454;16.948;2023-04-29T20:28:25;100504.78;;;14.14;58.27
64753;BME280;61095;52.454;16.948;2023-04-29T20:33:26;100514.69;;;14.11;58.14
64753;BME280;61095;52.454;16.948;2023-04-29T20:38:26;100519.34;;;14.06;58.28
64753;BME280;61095;52.454;16.948;2023-04-29T20:43:28;100521.19;;;14.03;58.29
64753;BME280;61095;52.454;16.948;2023-04-29T20:48:28;100534.53;;;14.02;57.77
64753;BME280;61095;52.454;16.948;2023-04-29T20:53:28;100536.53;;;13.97;58.03
64753;BME280;61095;52.454;16.948;2023-04-29T20:58:30;100534.16;;;13.91;57.68
64753;BME280;61095;52.454;16.948;2023-04-29T21:03:31;100543.00;;;13.90;57.72
64753;BME280;61095;52.454;16.948;2023-04-29T21:08:31;100551.88;;;13.89;57.05
64753;BME280;61095;52.454;16.948;2023-04-29T21:13:33;100552.81;;;13.88;56.89
64753;BME280;61095;52.454;16.948;2023-04-29T21:18:33;100556.50;;;13.84;56.40
64753;BME280;61095;52.454;16.948;2023-04-29T21:23:33;100570.75;;;13.81;56.75
64753;BME280;61095;52.454;16.948;2023-04-29T21:28:35;100575.25;;;13.79;56.46
64753;BME280;61095;52.454;16.948;2023-04-29T21:33:35;100583.34;;;13.76;55.92
64753;BME280;61095;52.454;16.948;2023-04-29T21:38:36;100581.69;;;13.73;56.00
64753;BME280;61095;52.454;16.948;2023-04-29T21:43:38;100595.22;;;13.67;55.31
64753;BME280;61095;52.454;16.948;2023-04-29T21:48:38;100597.78;;;13.69;54.91
64753;BME280;61095;52.454;16.948;2023-04-29T21:53:39;100592.56;;;13.67;54.81
64753;BME280;61095;52.454;16.948;2023-04-29T21:58:40;100592.56;;;13.67;54.90
64753;BME280;61095;52.454;16.948;2023-04-29T22:03:41;100594.41;;;13.65;54.50
64753;BME280;61095;52.454;16.948;2023-04-29T22:08:41;100596.53;;;13.57;54.10
64753;BME280;61095;52.454;16.948;2023-04-29T22:13:43;100601.03;;;13.55;53.97
64753;BME280;61095;52.454;16.948;2023-04-29T22:18:43;100603.88;;;13.51;54.04
64753;BME280;61095;52.454;16.948;2023-04-29T22:23:44;100600.47;;;13.47;54.01
64753;BME280;61095;52.454;16.948;2023-04-29T22:28:45;100602.28;;;13.47;53.88
64753;BME280;61095;52.454;16.948;2023-04-29T22:33:46;100614.81;;;13.41;53.98
64753;BME280;61095;52.454;16.948;2023-04-29T22:38:46;100619.19;;;13.42;54.25
64753;BME280;61095;52.454;16.948;2023-04-29T22:43:48;100626.47;;;13.37;54.24
64753;BME280;61095;52.454;16.948;2023-04-29T22:48:48;100631.16;;;13.31;54.09
64753;BME280;61095;52.454;16.948;2023-04-29T22:53:48;100631.41;;;13.25;54.04
64753;BME280;61095;52.454;16.948;2023-04-29T22:58:50;100640.41;;;13.21;54.33
